Time;durP1;ratioP1;P1;durP2;ratioP2;P2;SDS_P1;SDS_P2;PMS_P1;PMS_P2;Temp;Humidity;BMP_temperature;BMP_pressure;BME280_temperature;BME280_humidity;BME280_pressure;Samples;Min_cycle;Max_cycle;Signal;HPM_P1;HPM_P2
2021/08/18 00:01:13;;;;;;;5.65;3.70;;;15.50;99.90;;;;;;4969366;28;20489;-72
2021/08/18 00:03:40;;;;;;;3.73;3.23;;;15.50;99.90;;;;;;4964342;28;20912;-73
2021/08/18 00:06:06;;;;;;;4.57;3.63;;;15.50;99.90;;;;;;4964129;28;20465;-73
2021/08/18 00:08:31;;;;;;;4.43;3.40;;;15.50;99.90;;;;;;4979522;28;20907;-72
2021/08/18 00:10:57;;;;;;;5.25;3.45;;;15.40;99.90;;;;;;4965128;28;20404;-73
2021/08/18 00:13:23;;;;;;;3.50;3.20;;;15.40;99.90;;;;;;4977264;28;20424;-72
2021/08/18 00:15:50;;;;;;;4.10;3.45;;;15.40;99.90;;;;;;4964458;28;20403;-74
2021/08/18 00:18:15;;;;;;;3.20;2.88;;;15.40;99.90;;;;;;4964547;28;20405;-73
2021/08/18 00:20:41;;;;;;;4.43;3.05;;;15.40;99.90;;;;;;4961701;28;20449;-74
2021/08/18 00:23:07;;;;;;;4.43;3.53;;;15.30;99.90;;;;;;4975971;28;20464;-73
2021/08/18 00:25:33;;;;;;;3.00;2.77;;;15.30;99.90;;;;;;4978053;28;20381;-73
2021/08/18 00:27:59;;;;;;;3.25;2.95;;;15.30;99.90;;;;;;4978773;28;20403;-73
2021/08/18 00:30:25;;;;;;;3.80;3.10;;;15.30;99.90;;;;;;4962260;28;20401;-73
2021/08/18 00:32:50;;;;;;;3.58;2.83;;;15.30;99.90;;;;;;4979388;28;20484;-73
2021/08/18 00:35:16;;;;;;;2.90;2.70;;;15.30;99.90;;;;;;4970084;28;20464;-73
2021/08/18 00:37:42;;;;;;;3.55;2.90;;;15.30;99.90;;;;;;5004977;28;20404;-73
2021/08/18 00:40:10;;;;;;;3.00;2.70;;;15.20;99.90;;;;;;4994416;28;20419;-73
2021/08/18 00:42:35;;;;;;;4.57;3.28;;;15.20;99.90;;;;;;4975474;28;20480;-72
2021/08/18 00:45:01;;;;;;;3.80;2.70;;;15.20;99.90;;;;;;4967650;28;20405;-73
2021/08/18 00:47:27;;;;;;;3.00;2.63;;;15.10;99.90;;;;;;4977456;28;20396;-73
2021/08/18 00:49:53;;;;;;;3.80;3.00;;;15.10;99.90;;;;;;4965303;28;20464;-73
2021/08/18 00:52:19;;;;;;;2.80;2.60;;;15.10;99.90;;;;;;4962705;28;20412;-72
2021/08/18 00:54:45;;;;;;;2.60;2.40;;;15.10;99.90;;;;;;4981555;28;20479;-73
2021/08/18 00:57:11;;;;;;;2.58;2.30;;;15.00;99.90;;;;;;4955043;28;20792;-73
2021/08/18 00:59:36;;;;;;;4.10;2.73;;;15.10;99.90;;;;;;4979149;28;20397;-73
2021/08/18 01:02:02;;;;;;;3.78;2.63;;;15.00;99.90;;;;;;4965434;28;20407;-72
2021/08/18 01:04:28;;;;;;;2.67;2.47;;;14.90;99.90;;;;;;4965408;28;20900;-74
2021/08/18 01:06:54;;;;;;;2.70;2.50;;;15.00;99.90;;;;;;4986211;28;20805;-72
2021/08/18 01:09:20;;;;;;;2.53;2.33;;;15.00;99.90;;;;;;4962905;28;20769;-73
2021/08/18 01:11:47;;;;;;;4.78;2.55;;;15.00;99.90;;;;;;4963424;28;20421;-73
2021/08/18 01:14:13;;;;;;;3.42;2.83;;;14.90;99.90;;;;;;4980580;28;20393;-74
2021/08/18 01:16:40;;;;;;;2.67;2.33;;;14.90;99.90;;;;;;4978070;28;20887;-73
2021/08/18 01:19:06;;;;;;;2.42;2.22;;;14.90;99.90;;;;;;5000702;28;20935;-73
2021/08/18 01:21:33;;;;;;;4.20;2.77;;;14.90;99.90;;;;;;4959767;28;20424;-73
2021/08/18 01:23:59;;;;;;;2.35;2.15;;;14.80;99.90;;;;;;4962435;28;20499;-73
2021/08/18 01:26:24;;;;;;;2.73;2.53;;;14.80;99.90;;;;;;4962888;28;20991;-73
2021/08/18 01:28:50;;;;;;;3.25;2.90;;;14.70;99.90;;;;;;4987528;28;20452;-72
2021/08/18 01:31:18;;;;;;;2.63;2.42;;;14.70;99.90;;;;;;4957911;28;20420;-72
2021/08/18 01:33:43;;;;;;;2.50;2.30;;;14.70;99.90;;;;;;4962406;28;20425;-72
2021/08/18 01:36:09;;;;;;;3.10;2.70;;;14.70;99.90;;;;;;4964778;28;21141;-72
2021/08/18 01:38:35;;;;;;;3.10;2.42;;;14.70;99.90;;;;;;4958746;28;20425;-73
2021/08/18 01:41:00;;;;;;;2.60;2.40;;;14.70;99.90;;;;;;4960788;28;20416;-73
2021/08/18 01:43:26;;;;;;;3.17;2.25;;;14.70;99.90;;;;;;4975883;28;20415;-73
2021/08/18 01:45:52;;;;;;;2.45;2.25;;;14.60;99.90;;;;;;4979216;28;20451;-72
2021/08/18 01:48:25;;;;;;;2.55;2.20;;;14.60;99.90;;;;;;4970676;28;20385;-73
2021/08/18 01:50:52;;;;;;;2.40;2.20;;;14.60;99.90;;;;;;4960539;28;20875;-73
2021/08/18 01:53:25;;;;;;;2.20;2.03;;;14.60;99.90;;;;;;4944960;28;20436;-73
2021/08/18 01:55:50;;;;;;;2.30;2.10;;;14.60;99.90;;;;;;4990798;28;20440;-73
2021/08/18 01:58:16;;;;;;;2.20;2.00;;;14.50;99.90;;;;;;4994219;28;20416;-73
2021/08/18 02:00:42;;;;;;;2.60;2.00;;;14.50;99.90;;;;;;4959060;28;20903;-73
2021/08/18 02:03:07;;;;;;;2.85;2.30;;;14.50;99.90;;;;;;4984913;28;20408;-73
2021/08/18 02:05:33;;;;;;;2.28;2.08;;;14.50;99.90;;;;;;4977611;28;20455;-73
2021/08/18 02:07:59;;;;;;;2.40;2.20;;;14.40;99.90;;;;;;4963968;28;20766;-74
2021/08/18 02:10:25;;;;;;;3.08;2.20;;;14.40;99.90;;;;;;4979215;28;20399;-73
2021/08/18 02:12:51;;;;;;;2.00;1.85;;;14.40;99.90;;;;;;4955116;28;20477;-72
2021/08/18 02:15:43;;;;;;;2.33;2.13;;;14.40;99.90;;;;;;4983436;28;20402;-73
2021/08/18 02:18:09;;;;;;;1.92;1.83;;;14.40;99.90;;;;;;4966959;28;20929;-72
2021/08/18 02:20:36;;;;;;;2.88;2.05;;;14.40;99.90;;;;;;4962180;28;20436;-73
2021/08/18 02:23:02;;;;;;;2.17;2.03;;;14.40;99.90;;;;;;4976613;28;20393;-72
2021/08/18 02:25:28;;;;;;;2.55;2.15;;;14.40;99.90;;;;;;4964158;28;20481;-73
2021/08/18 02:27:54;;;;;;;2.20;2.00;;;14.40;99.90;;;;;;4974970;28;20480;-73
2021/08/18 02:30:22;;;;;;;3.05;2.13;;;14.30;99.90;;;;;;4977488;28;20401;-73
2021/08/18 02:32:48;;;;;;;2.70;2.15;;;14.30;99.90;;;;;;4960231;28;20401;-74
2021/08/18 02:35:14;;;;;;;3.27;2.40;;;14.20;99.90;;;;;;4993299;28;20397;-72
2021/08/18 02:37:39;;;;;;;2.35;2.15;;;14.20;99.90;;;;;;4959475;28;20436;-72
2021/08/18 02:40:06;;;;;;;3.07;1.93;;;14.20;99.90;;;;;;4980257;28;20396;-72
2021/08/18 02:42:32;;;;;;;2.25;2.05;;;14.30;99.90;;;;;;4991829;28;20469;-74
2021/08/18 02:44:57;;;;;;;2.47;2.23;;;14.20;99.90;;;;;;4960994;28;20543;-72
2021/08/18 02:47:23;;;;;;;1.95;1.85;;;14.20;99.90;;;;;;4960140;28;20401;-72
2021/08/18 02:49:49;;;;;;;2.40;2.20;;;14.20;99.90;;;;;;4962298;28;20428;-73
2021/08/18 02:52:14;;;;;;;2.20;2.00;;;14.10;99.90;;;;;;4969902;28;20455;-72
2021/08/18 02:54:41;;;;;;;2.37;2.17;;;14.10;99.90;;;;;;4962454;28;20958;-72
2021/08/18 02:57:06;;;;;;;2.45;2.25;;;14.10;99.90;;;;;;4975806;28;20737;-73
2021/08/18 02:59:32;;;;;;;1.80;1.70;;;14.10;99.90;;;;;;4975044;28;20628;-71
2021/08/18 03:01:58;;;;;;;2.25;2.05;;;14.10;99.90;;;;;;4962378;28;20462;-73
2021/08/18 03:04:23;;;;;;;1.92;1.83;;;14.10;99.90;;;;;;4966149;28;20458;-73
2021/08/18 03:06:49;;;;;;;2.47;2.17;;;14.00;99.90;;;;;;4985219;28;20464;-73
2021/08/18 03:09:15;;;;;;;3.37;2.20;;;14.00;99.90;;;;;;4960134;28;20399;-72
2021/08/18 03:11:40;;;;;;;2.00;1.90;;;14.00;99.90;;;;;;4964430;28;20422;-72
2021/08/18 03:14:06;;;;;;;2.57;2.20;;;13.90;99.90;;;;;;4970885;28;20404;-72
2021/08/18 03:16:32;;;;;;;2.10;1.90;;;13.90;99.90;;;;;;4961280;28;20412;-74
2021/08/18 03:18:57;;;;;;;2.90;2.50;;;13.90;99.90;;;;;;4965112;28;20402;-73
2021/08/18 03:21:23;;;;;;;4.00;2.42;;;13.90;99.90;;;;;;4959452;28;20404;-72
2021/08/18 03:23:49;;;;;;;2.20;2.03;;;13.90;99.90;;;;;;4961516;28;20835;-73
2021/08/18 03:26:15;;;;;;;2.50;2.30;;;13.80;99.90;;;;;;4994218;28;20400;-72
2021/08/18 03:28:40;;;;;;;2.53;2.33;;;13.80;99.90;;;;;;4960490;28;20430;-74
2021/08/18 03:31:06;;;;;;;2.10;1.90;;;13.80;99.90;;;;;;4975735;28;20489;-70
2021/08/18 03:33:32;;;;;;;1.97;1.87;;;13.70;99.90;;;;;;4961854;28;20413;-73
2021/08/18 03:35:57;;;;;;;2.10;1.90;;;13.70;99.90;;;;;;4969626;28;20917;-73
2021/08/18 03:38:23;;;;;;;2.60;2.00;;;13.70;99.90;;;;;;4966900;28;20388;-73
2021/08/18 03:40:52;;;;;;;2.17;1.90;;;13.70;99.90;;;;;;4965766;28;20414;-72
2021/08/18 03:43:21;;;;;;;3.75;2.47;;;13.60;99.90;;;;;;4966343;28;20393;-72
2021/08/18 03:45:47;;;;;;;2.53;2.33;;;13.60;99.90;;;;;;4996623;28;20415;-73
2021/08/18 03:48:13;;;;;;;2.33;1.98;;;13.60;99.90;;;;;;4962019;28;20408;-72
2021/08/18 03:50:38;;;;;;;2.30;2.17;;;13.60;99.90;;;;;;4967689;28;20412;-73
2021/08/18 03:53:04;;;;;;;3.05;2.40;;;13.50;99.90;;;;;;4978888;28;20557;-72
2021/08/18 03:55:30;;;;;;;2.03;1.87;;;13.40;99.90;;;;;;4967053;28;20393;-75
2021/08/18 03:57:55;;;;;;;2.00;1.90;;;13.50;99.90;;;;;;4949231;28;20386;-75
2021/08/18 04:00:21;;;;;;;2.08;1.98;;;13.40;99.90;;;;;;4981461;28;20482;-77
2021/08/18 04:02:47;;;;;;;2.47;2.25;;;13.30;99.90;;;;;;4974223;28;20466;-73
2021/08/18 04:05:13;;;;;;;2.58;2.38;;;13.30;99.90;;;;;;4965377;28;20402;-74
2021/08/18 04:07:39;;;;;;;2.40;2.20;;;13.20;99.90;;;;;;4995591;28;20874;-72
2021/08/18 04:10:05;;;;;;;2.47;2.27;;;13.20;99.90;;;;;;4966582;28;20408;-72
2021/08/18 04:12:31;;;;;;;2.50;2.30;;;13.20;99.90;;;;;;4963097;28;20401;-72
2021/08/18 04:14:57;;;;;;;2.22;2.03;;;13.10;99.90;;;;;;4963765;28;20489;-74
2021/08/18 04:17:23;;;;;;;2.43;2.20;;;13.10;99.90;;;;;;4978813;28;20396;-73
2021/08/18 04:19:49;;;;;;;3.17;2.30;;;13.10;99.90;;;;;;4962813;28;20405;-72
2021/08/18 04:22:14;;;;;;;2.40;2.20;;;13.10;99.90;;;;;;4965131;28;20940;-74
2021/08/18 04:24:40;;;;;;;2.72;2.30;;;13.10;99.90;;;;;;4963295;28;20400;-74
2021/08/18 04:27:06;;;;;;;2.17;2.00;;;13.10;99.90;;;;;;4971396;28;20393;-76
2021/08/18 04:29:31;;;;;;;2.45;2.10;;;13.00;99.90;;;;;;4978827;28;20489;-74
2021/08/18 04:31:59;;;;;;;2.40;1.90;;;13.10;99.90;;;;;;4988043;28;20415;-71
2021/08/18 04:34:24;;;;;;;2.28;1.90;;;13.10;99.90;;;;;;4981023;28;20459;-74
2021/08/18 04:36:50;;;;;;;2.40;2.20;;;13.00;99.90;;;;;;4947531;28;20781;-72
2021/08/18 04:39:16;;;;;;;2.60;2.30;;;13.00;99.90;;;;;;4961276;28;20401;-74
2021/08/18 04:41:41;;;;;;;2.45;2.00;;;13.10;99.90;;;;;;4963819;28;20830;-74
2021/08/18 04:44:07;;;;;;;2.80;2.20;;;13.10;99.90;;;;;;4979949;28;20385;-74
2021/08/18 04:46:33;;;;;;;2.03;1.92;;;13.10;99.90;;;;;;4977125;28;20393;-72
2021/08/18 04:48:58;;;;;;;1.80;1.70;;;13.10;99.90;;;;;;4963247;28;20935;-73
2021/08/18 04:51:24;;;;;;;3.53;3.23;;;13.10;99.90;;;;;;4964661;28;20453;-72
2021/08/18 04:53:50;;;;;;;2.25;2.08;;;13.10;99.90;;;;;;4977467;28;20392;-74
2021/08/18 04:56:15;;;;;;;2.30;2.10;;;13.20;99.90;;;;;;4988413;28;20892;-74
2021/08/18 04:58:41;;;;;;;3.25;1.90;;;13.20;99.90;;;;;;4978338;28;20429;-73
2021/08/18 05:01:06;;;;;;;2.43;2.23;;;13.20;99.90;;;;;;4960066;28;20479;-74
2021/08/18 05:03:32;;;;;;;2.40;2.20;;;13.30;99.90;;;;;;4944456;28;20396;-73
2021/08/18 05:05:58;;;;;;;2.30;2.10;;;13.40;99.90;;;;;;4997195;28;20479;-74
2021/08/18 05:08:23;;;;;;;1.98;1.80;;;13.40;99.90;;;;;;4979950;28;20424;-73
2021/08/18 05:10:49;;;;;;;2.27;1.93;;;13.40;99.90;;;;;;4958348;28;21081;-74
2021/08/18 05:13:15;;;;;;;1.95;1.80;;;13.50;99.90;;;;;;4961223;28;20437;-73
2021/08/18 05:15:41;;;;;;;2.27;2.10;;;13.50;99.90;;;;;;4977905;28;20464;-72
2021/08/18 05:18:06;;;;;;;2.30;2.10;;;13.60;99.90;;;;;;4973954;28;20393;-71
2021/08/18 05:20:32;;;;;;;2.03;1.88;;;13.60;99.90;;;;;;4978667;28;21125;-72
2021/08/18 05:22:58;;;;;;;3.43;2.17;;;13.70;99.90;;;;;;4958997;28;20456;-74
2021/08/18 05:25:24;;;;;;;1.90;1.80;;;13.70;99.90;;;;;;4968751;28;20400;-74
2021/08/18 05:27:49;;;;;;;3.17;1.70;;;13.80;99.90;;;;;;4962320;28;20447;-73
2021/08/18 05:30:15;;;;;;;2.78;2.58;;;13.80;99.90;;;;;;4979772;28;20393;-73
2021/08/18 05:32:41;;;;;;;1.93;1.83;;;13.80;99.90;;;;;;4952432;28;20421;-72
2021/08/18 05:35:13;;;;;;;2.13;1.92;;;13.80;99.90;;;;;;4980200;28;20400;-74
2021/08/18 05:37:39;;;;;;;5.15;2.08;;;13.80;99.90;;;;;;5000093;28;20396;-73
2021/08/18 05:40:05;;;;;;;2.00;1.90;;;13.80;99.90;;;;;;4981242;28;20405;-73
2021/08/18 05:42:31;;;;;;;2.87;2.40;;;13.80;99.90;;;;;;4976589;28;20404;-74
2021/08/18 05:44:56;;;;;;;2.97;2.00;;;13.90;99.90;;;;;;4960414;28;20381;-74
2021/08/18 05:47:22;;;;;;;2.13;1.83;;;13.90;99.90;;;;;;4967028;28;20460;-72
2021/08/18 05:49:49;;;;;;;2.03;1.92;;;13.90;99.90;;;;;;4961542;28;20405;-72
2021/08/18 05:52:15;;;;;;;2.20;2.00;;;13.90;99.90;;;;;;4979280;28;20419;-73
2021/08/18 05:54:40;;;;;;;2.30;2.10;;;14.00;99.90;;;;;;4962357;28;20400;-74
2021/08/18 05:57:06;;;;;;;2.23;2.03;;;14.00;99.90;;;;;;4945369;28;20880;-73
2021/08/18 05:59:32;;;;;;;2.35;2.15;;;14.10;99.90;;;;;;4963303;28;20417;-73
2021/08/18 06:01:57;;;;;;;2.53;2.03;;;14.20;99.90;;;;;;4958035;28;20777;-72
2021/08/18 06:04:23;;;;;;;2.92;1.98;;;14.20;99.90;;;;;;4988700;28;20420;-74
2021/08/18 06:06:48;;;;;;;2.60;2.30;;;14.30;99.90;;;;;;4990978;28;20400;-74
2021/08/18 06:09:14;;;;;;;3.10;1.65;;;14.40;99.90;;;;;;4964189;28;20452;-72
2021/08/18 06:11:41;;;;;;;2.00;1.80;;;14.40;99.90;;;;;;4955918;28;20509;-74
2021/08/18 06:14:07;;;;;;;3.17;1.80;;;14.60;99.90;;;;;;4970318;28;20409;-75
2021/08/18 06:16:33;;;;;;;2.00;1.80;;;14.60;99.90;;;;;;4975503;28;21165;-71
2021/08/18 06:18:59;;;;;;;2.50;2.30;;;14.70;99.90;;;;;;4963203;28;20400;-74
2021/08/18 06:21:25;;;;;;;2.30;2.10;;;14.70;99.90;;;;;;4973578;28;20401;-73
2021/08/18 06:23:54;;;;;;;2.35;2.15;;;14.80;99.90;;;;;;4963513;28;20965;-73
2021/08/18 06:26:19;;;;;;;2.33;1.92;;;14.80;99.90;;;;;;4974151;28;20922;-73
2021/08/18 06:28:45;;;;;;;1.92;1.83;;;14.90;99.90;;;;;;4960676;28;20389;-75
2021/08/18 06:31:11;;;;;;;1.80;1.70;;;14.90;99.90;;;;;;4961372;28;20384;-75
2021/08/18 06:33:36;;;;;;;2.13;1.93;;;15.00;99.90;;;;;;4961129;28;20417;-73
2021/08/18 06:36:02;;;;;;;1.90;1.80;;;15.20;99.90;;;;;;4959743;28;20420;-72
2021/08/18 06:38:29;;;;;;;2.17;1.87;;;15.30;99.90;;;;;;4992027;28;20389;-74
2021/08/18 06:40:54;;;;;;;2.05;1.85;;;15.50;99.90;;;;;;4992079;28;20411;-74
2021/08/18 06:43:20;;;;;;;1.97;1.80;;;15.60;99.90;;;;;;4941371;28;20402;-73
2021/08/18 06:45:46;;;;;;;1.80;1.70;;;15.70;99.90;;;;;;4970141;28;20405;-72
2021/08/18 06:48:12;;;;;;;2.10;1.90;;;15.80;99.90;;;;;;4954090;28;20873;-76
2021/08/18 06:50:37;;;;;;;1.80;1.70;;;15.90;99.90;;;;;;4976450;28;20413;-74
2021/08/18 06:53:03;;;;;;;1.90;1.80;;;16.00;99.90;;;;;;4954765;28;20485;-73
2021/08/18 06:55:30;;;;;;;2.03;1.90;;;16.10;99.90;;;;;;5003022;28;20396;-77
2021/08/18 06:57:55;;;;;;;2.70;2.10;;;16.20;99.90;;;;;;4992513;28;20916;-75
2021/08/18 07:00:21;;;;;;;2.00;1.85;;;16.30;99.90;;;;;;4954078;28;20491;-73
2021/08/18 07:02:49;;;;;;;1.73;1.63;;;16.30;99.90;;;;;;4977422;28;20841;-74
2021/08/18 07:05:15;;;;;;;1.95;1.75;;;16.40;99.90;;;;;;4976876;28;20400;-74
2021/08/18 07:07:41;;;;;;;1.70;1.60;;;16.30;99.90;;;;;;4965846;28;20454;-74
2021/08/18 07:10:07;;;;;;;1.75;1.65;;;16.30;99.90;;;;;;4973983;28;20957;-73
2021/08/18 07:12:33;;;;;;;1.73;1.63;;;16.30;99.90;;;;;;4980087;28;20921;-74
2021/08/18 07:14:58;;;;;;;1.50;1.40;;;16.40;99.90;;;;;;4981037;28;20411;-73
2021/08/18 07:17:24;;;;;;;1.70;1.60;;;16.40;99.90;;;;;;4978806;28;21111;-74
2021/08/18 07:19:50;;;;;;;2.63;1.60;;;16.50;99.90;;;;;;4976551;28;20398;-75
2021/08/18 07:22:15;;;;;;;1.50;1.40;;;16.50;99.90;;;;;;4963787;28;20397;-73
2021/08/18 07:24:41;;;;;;;1.77;1.60;;;16.50;99.90;;;;;;4966126;28;20455;-74
2021/08/18 07:27:06;;;;;;;2.50;1.77;;;16.50;99.90;;;;;;4973221;28;21095;-75
2021/08/18 07:29:32;;;;;;;1.90;1.80;;;16.60;99.90;;;;;;4955336;28;20454;-74
2021/08/18 07:31:58;;;;;;;1.60;1.50;;;16.60;99.90;;;;;;4978091;28;20412;-74
2021/08/18 07:34:23;;;;;;;1.63;1.52;;;16.60;99.90;;;;;;4978184;28;20397;-74
2021/08/18 07:36:49;;;;;;;1.50;1.40;;;16.60;99.90;;;;;;4965588;28;20420;-75
2021/08/18 07:39:15;;;;;;;1.77;1.67;;;16.70;99.90;;;;;;4967791;28;20401;-74
2021/08/18 07:41:40;;;;;;;2.25;1.60;;;16.80;99.90;;;;;;4962043;28;20443;-74
2021/08/18 07:44:06;;;;;;;2.37;1.70;;;16.90;99.90;;;;;;4963805;28;20754;-73
2021/08/18 07:46:32;;;;;;;2.25;1.92;;;16.90;99.90;;;;;;4946951;28;21424;-75
2021/08/18 07:48:58;;;;;;;1.90;1.70;;;16.90;99.90;;;;;;4952131;28;20389;-73
2021/08/18 07:51:23;;;;;;;2.47;1.95;;;16.90;99.90;;;;;;4978911;28;20401;-74
2021/08/18 07:53:49;;;;;;;1.67;1.57;;;16.90;99.90;;;;;;4989205;28;20434;-74
2021/08/18 07:56:15;;;;;;;1.73;1.60;;;16.90;99.90;;;;;;4980293;28;20392;-75
2021/08/18 07:58:40;;;;;;;1.80;1.70;;;17.00;99.90;;;;;;4961126;28;20394;-74
2021/08/18 08:01:06;;;;;;;1.63;1.52;;;17.10;99.90;;;;;;4970243;28;20405;-75
2021/08/18 08:03:32;;;;;;;1.40;1.30;;;17.30;99.90;;;;;;4976005;28;20385;-75
2021/08/18 08:05:58;;;;;;;1.60;1.50;;;17.40;99.90;;;;;;4981727;28;20465;-76
2021/08/18 08:08:23;;;;;;;2.13;1.63;;;17.50;99.90;;;;;;4963656;28;20496;-76
2021/08/18 08:10:49;;;;;;;1.70;1.60;;;17.60;99.90;;;;;;4960839;28;20898;-74
2021/08/18 08:13:15;;;;;;;1.67;1.58;;;17.70;99.90;;;;;;4964719;28;21213;-75
2021/08/18 08:15:40;;;;;;;1.53;1.43;;;17.90;99.90;;;;;;4963666;28;20406;-74
2021/08/18 08:18:06;;;;;;;1.67;1.58;;;18.00;99.90;;;;;;4972542;28;20394;-74
2021/08/18 08:20:32;;;;;;;3.43;1.67;;;18.20;99.90;;;;;;4964002;28;20460;-74
2021/08/18 08:22:57;;;;;;;1.50;1.40;;;18.30;99.90;;;;;;4966168;28;20469;-74
2021/08/18 08:25:23;;;;;;;1.50;1.40;;;18.40;99.90;;;;;;4960492;28;20481;-75
2021/08/18 08:27:49;;;;;;;1.50;1.40;;;18.60;99.90;;;;;;4959321;28;20404;-74
2021/08/18 08:30:15;;;;;;;1.73;1.45;;;18.70;99.90;;;;;;4967236;28;20413;-74
2021/08/18 08:32:41;;;;;;;1.50;1.40;;;18.90;99.90;;;;;;4969790;28;20505;-75
2021/08/18 08:35:07;;;;;;;1.13;1.13;;;19.10;99.90;;;;;;4963744;28;20436;-76
2021/08/18 08:37:33;;;;;;;1.10;1.10;;;19.30;99.90;;;;;;4961908;28;20408;-75
2021/08/18 08:39:59;;;;;;;1.40;1.30;;;19.50;99.90;;;;;;4970101;28;20401;-75
2021/08/18 08:42:25;;;;;;;1.30;1.20;;;19.40;99.90;;;;;;4972522;28;20401;-74
2021/08/18 08:44:51;;;;;;;1.30;1.20;;;19.40;99.90;;;;;;4962225;28;20543;-74
2021/08/18 08:47:18;;;;;;;1.60;1.30;;;19.50;99.90;;;;;;4958046;28;20401;-75
2021/08/18 08:49:43;;;;;;;1.40;1.30;;;19.50;99.90;;;;;;4985965;28;20404;-75
2021/08/18 08:52:12;;;;;;;1.13;1.13;;;19.60;99.90;;;;;;4954815;28;20781;-74
2021/08/18 08:54:39;;;;;;;1.50;1.38;;;19.80;99.90;;;;;;4979577;28;20404;-74
2021/08/18 08:57:05;;;;;;;1.40;1.30;;;20.00;99.90;;;;;;4964610;28;20396;-75
2021/08/18 08:59:31;;;;;;;1.55;1.45;;;20.10;99.90;;;;;;4992441;28;20404;-73
2021/08/18 09:02:09;;;;;;;1.40;1.30;;;20.20;99.90;;;;;;4961268;28;20403;-76
2021/08/18 09:04:46;;;;;;;1.33;1.23;;;20.20;99.90;;;;;;4979163;28;20400;-74
2021/08/18 09:07:16;;;;;;;1.40;1.30;;;20.30;99.90;;;;;;4993605;28;20404;-74
2021/08/18 09:09:43;;;;;;;1.40;1.30;;;20.40;99.90;;;;;;4961038;28;20487;-76
2021/08/18 09:12:13;;;;;;;1.42;1.33;;;20.50;99.90;;;;;;4959106;28;20474;-74
2021/08/18 09:14:39;;;;;;;1.35;1.25;;;20.40;99.90;;;;;;5005451;28;20797;-75
2021/08/18 09:17:28;;;;;;;1.20;1.20;;;20.40;99.90;;;;;;4957553;28;20409;-73
2021/08/18 09:20:21;;;;;;;1.00;1.00;;;20.50;99.90;;;;;;4978880;28;20452;-75
2021/08/18 09:22:51;;;;;;;1.13;1.08;;;20.60;99.90;;;;;;4985090;28;20484;-74
2021/08/18 09:25:22;;;;;;;1.10;1.10;;;20.60;99.90;;;;;;4960879;28;20428;-74
2021/08/18 09:28:13;;;;;;;1.52;1.42;;;20.80;99.90;;;;;;4997335;28;20404;-74
2021/08/18 09:30:46;;;;;;;1.20;1.15;;;20.80;99.90;;;;;;4975465;28;20468;-74
2021/08/18 09:33:12;;;;;;;1.38;1.30;;;20.90;99.90;;;;;;4946727;28;20412;-74
2021/08/18 09:35:38;;;;;;;1.20;1.10;;;21.10;99.90;;;;;;4977476;28;20897;-74
2021/08/18 09:38:12;;;;;;;1.10;1.10;;;21.20;99.90;;;;;;4975977;28;20393;-74
2021/08/18 09:40:42;;;;;;;4.33;1.50;;;21.20;99.90;;;;;;4959273;28;20402;-75
2021/08/18 09:43:22;;;;;;;1.20;1.10;;;21.30;99.90;;;;;;4962171;28;20511;-74
2021/08/18 09:46:01;;;;;;;1.10;1.10;;;21.30;99.90;;;;;;4963037;28;20484;-74
2021/08/18 09:48:27;;;;;;;1.33;1.23;;;21.60;99.90;;;;;;4958673;28;20508;-75
2021/08/18 09:50:59;;;;;;;1.00;1.00;;;21.70;99.90;;;;;;4963953;28;20448;-75
2021/08/18 09:53:26;;;;;;;1.23;1.20;;;21.80;99.90;;;;;;5004240;28;20912;-75
2021/08/18 09:55:52;;;;;;;1.40;1.00;;;21.70;99.90;;;;;;4980288;28;20539;-75
2021/08/18 09:58:20;;;;;;;2.58;1.48;;;21.70;99.90;;;;;;5003229;28;20948;-73
2021/08/18 10:00:46;;;;;;;1.00;1.00;;;21.70;99.90;;;;;;4980349;28;20551;-75
2021/08/18 10:03:12;;;;;;;1.90;1.10;;;21.80;99.90;;;;;;4986672;28;20889;-74
2021/08/18 10:05:37;;;;;;;1.10;1.10;;;21.80;99.90;;;;;;4964528;28;20499;-74
2021/08/18 10:08:03;;;;;;;0.97;0.97;;;21.70;99.90;;;;;;4975734;28;20912;-74
2021/08/18 10:10:29;;;;;;;1.10;1.10;;;21.60;99.90;;;;;;4944954;28;20418;-74
2021/08/18 10:12:55;;;;;;;1.30;1.17;;;21.80;99.90;;;;;;4989989;28;20409;-73
2021/08/18 10:15:20;;;;;;;1.58;0.90;;;22.00;99.90;;;;;;4961192;28;20504;-75
2021/08/18 10:17:46;;;;;;;1.10;0.90;;;22.10;99.90;;;;;;4976157;28;20542;-75
2021/08/18 10:20:14;;;;;;;0.90;0.90;;;22.20;99.90;;;;;;4961164;28;20396;-75
2021/08/18 10:22:39;;;;;;;1.13;1.02;;;22.20;99.90;;;;;;4958222;28;20860;-75
2021/08/18 10:25:36;;;;;;;1.40;1.27;;;22.10;99.90;;;;;;4958742;28;20472;-75
2021/08/18 10:28:07;;;;;;;0.85;0.85;;;22.00;99.90;;;;;;4986642;28;21012;-74
2021/08/18 10:30:32;;;;;;;1.90;1.13;;;22.00;99.90;;;;;;4965477;28;20400;-75
2021/08/18 10:32:58;;;;;;;0.82;0.80;;;21.90;99.90;;;;;;4965077;28;20413;-74
2021/08/18 10:35:36;;;;;;;0.80;0.80;;;21.90;99.90;;;;;;4979994;28;20404;-75
2021/08/18 10:38:31;;;;;;;1.33;0.95;;;21.70;99.90;;;;;;5005717;28;20432;-75
2021/08/18 10:40:57;;;;;;;0.90;0.90;;;21.60;99.90;;;;;;5005271;28;20409;-75
2021/08/18 10:43:51;;;;;;;0.90;0.90;;;21.70;99.90;;;;;;4961706;28;20766;-75
2021/08/18 10:46:17;;;;;;;0.77;0.77;;;21.70;99.90;;;;;;4985318;28;20470;-75
2021/08/18 10:48:54;;;;;;;0.80;0.80;;;21.70;99.90;;;;;;4956957;28;20930;-75
2021/08/18 10:51:39;;;;;;;0.70;0.70;;;21.70;99.90;;;;;;4968692;28;20506;-74
2021/08/18 10:54:29;;;;;;;0.80;0.80;;;21.70;99.90;;;;;;4980875;28;20420;-74
2021/08/18 10:56:58;;;;;;;1.83;1.05;;;21.70;99.90;;;;;;4992370;28;21012;-76
2021/08/18 10:59:36;;;;;;;1.38;1.27;;;21.60;99.90;;;;;;4948840;28;20585;-74
2021/08/18 11:02:02;;;;;;;1.10;1.00;;;21.70;99.90;;;;;;4977582;28;20976;-75
2021/08/18 11:04:51;;;;;;;1.07;1.00;;;21.90;99.90;;;;;;4975376;28;20408;-74
2021/08/18 11:07:17;;;;;;;1.30;1.10;;;22.10;99.90;;;;;;4958674;28;20893;-74
2021/08/18 11:09:49;;;;;;;0.90;0.90;;;22.10;99.90;;;;;;4961304;28;20405;-75
2021/08/18 11:12:39;;;;;;;0.88;0.88;;;22.20;99.90;;;;;;4997733;28;20417;-74
2021/08/18 11:15:20;;;;;;;1.25;1.15;;;22.60;99.90;;;;;;5001159;28;20490;-74
2021/08/18 11:17:49;;;;;;;0.93;0.93;;;23.20;99.90;;;;;;4981251;28;20393;-74
2021/08/18 11:20:16;;;;;;;1.30;1.20;;;23.30;99.90;;;;;;4968746;28;20426;-74
2021/08/18 11:22:42;;;;;;;0.80;0.80;;;23.20;99.90;;;;;;4976818;28;20517;-74
2021/08/18 11:25:08;;;;;;;0.90;0.80;;;22.90;99.90;;;;;;4977415;28;20468;-75
2021/08/18 11:27:34;;;;;;;0.80;0.80;;;22.70;99.90;;;;;;4957684;28;20891;-75
2021/08/18 11:30:00;;;;;;;1.00;1.00;;;22.60;99.90;;;;;;4943230;28;20401;-75
2021/08/18 11:32:26;;;;;;;0.83;0.83;;;22.60;99.90;;;;;;4959269;28;21212;-75
2021/08/18 11:34:51;;;;;;;0.90;0.90;;;22.80;99.90;;;;;;4993950;28;20498;-75
2021/08/18 11:37:17;;;;;;;0.80;0.80;;;23.10;99.90;;;;;;4956012;28;20393;-75
2021/08/18 11:39:46;;;;;;;1.00;0.70;;;23.20;99.90;;;;;;4956821;28;20413;-74
2021/08/18 11:42:16;;;;;;;0.70;0.70;;;23.20;99.90;;;;;;4993172;28;20417;-74
2021/08/18 11:44:42;;;;;;;1.00;1.00;;;23.20;99.90;;;;;;4971003;28;20401;-75
2021/08/18 11:47:15;;;;;;;1.00;0.80;;;23.00;99.90;;;;;;4959079;28;20481;-75
2021/08/18 11:49:43;;;;;;;0.88;0.88;;;22.70;99.90;;;;;;4978390;28;20451;-75
2021/08/18 11:52:17;;;;;;;0.87;0.87;;;22.70;99.90;;;;;;4965669;28;20964;-74
2021/08/18 11:55:02;;;;;;;0.80;0.80;;;22.70;99.90;;;;;;4964180;28;20917;-75
2021/08/18 11:57:28;;;;;;;0.83;0.83;;;22.70;99.90;;;;;;4996726;28;20447;-75
2021/08/18 11:59:55;;;;;;;0.80;0.75;;;22.70;99.90;;;;;;4980356;28;20400;-74
2021/08/18 12:02:24;;;;;;;0.80;0.80;;;22.80;99.90;;;;;;4961554;28;20424;-75
2021/08/18 12:04:49;;;;;;;1.90;1.10;;;22.90;99.90;;;;;;4963374;28;20405;-75
2021/08/18 12:07:16;;;;;;;0.80;0.80;;;23.00;99.90;;;;;;4978007;28;20455;-74
2021/08/18 12:09:46;;;;;;;0.98;0.90;;;23.20;99.90;;;;;;4989674;28;20454;-75
2021/08/18 12:12:20;;;;;;;0.83;0.83;;;23.70;99.90;;;;;;4958368;28;20933;-75
2021/08/18 12:14:47;;;;;;;0.80;0.80;;;24.00;99.90;;;;;;4981055;28;20396;-75
2021/08/18 12:17:12;;;;;;;0.70;0.70;;;23.90;99.90;;;;;;4962672;28;20400;-74
2021/08/18 12:19:42;;;;;;;1.10;0.88;;;23.90;99.90;;;;;;4982178;28;20399;-74
2021/08/18 12:22:10;;;;;;;0.75;0.75;;;24.00;99.90;;;;;;4962586;28;20480;-75
2021/08/18 12:24:36;;;;;;;1.08;1.00;;;24.00;99.90;;;;;;4966200;28;20901;-75
2021/08/18 12:27:06;;;;;;;0.82;0.82;;;24.00;99.90;;;;;;4959988;28;20463;-75
2021/08/18 12:29:32;;;;;;;0.70;0.70;;;24.00;99.90;;;;;;4964621;28;20400;-75
2021/08/18 12:32:05;;;;;;;0.90;0.90;;;24.30;99.90;;;;;;4960895;28;20412;-74
2021/08/18 12:34:39;;;;;;;1.20;1.10;;;24.60;99.90;;;;;;4983885;28;20392;-75
2021/08/18 12:37:17;;;;;;;0.80;0.80;;;24.70;99.90;;;;;;4986939;28;20393;-75
2021/08/18 12:39:52;;;;;;;0.80;0.80;;;24.70;99.90;;;;;;4995526;28;20816;-75
2021/08/18 12:42:27;;;;;;;1.00;0.70;;;24.70;99.90;;;;;;4994648;28;20888;-75
2021/08/18 12:45:13;;;;;;;0.90;0.90;;;24.80;99.90;;;;;;4978160;28;20403;-75
2021/08/18 12:47:43;;;;;;;0.60;0.60;;;24.90;99.90;;;;;;4963448;28;20488;-75
2021/08/18 12:50:11;;;;;;;0.80;0.80;;;24.80;99.90;;;;;;4982156;28;20462;-74